createdAt,value
2023-03-13T00:01:46.970Z,76.33
2023-03-13T00:04:13.630Z,75.95
2023-03-13T00:06:40.327Z,75.84
2023-03-13T00:09:09.124Z,76.59
2023-03-13T00:11:36.084Z,76.35
2023-03-13T00:14:03.758Z,76.65
2023-03-13T00:16:30.971Z,76.73
2023-03-13T00:18:58.084Z,76.30
2023-03-13T00:21:26.941Z,76.48
2023-03-13T00:23:53.839Z,76.18
2023-03-13T00:26:22.532Z,76.17
2023-03-13T00:28:50.897Z,76.61
2023-03-13T00:31:19.971Z,76.52
2023-03-13T00:33:52.620Z,76.57
2023-03-13T00:36:22.403Z,76.54
2023-03-13T00:38:49.263Z,76.20
2023-03-13T00:41:24.060Z,76.63
2023-03-13T00:43:51.236Z,76.73
2023-03-13T00:46:20.490Z,75.91
2023-03-13T00:48:47.204Z,75.99
2023-03-13T00:51:15.410Z,76.11
2023-03-13T00:53:42.231Z,76.00
2023-03-13T00:56:11.101Z,75.57
2023-03-13T00:58:39.920Z,75.44
2023-03-13T01:01:20.824Z,75.73
2023-03-13T01:03:50.086Z,76.08
2023-03-13T01:06:19.726Z,75.53
2023-03-13T01:08:46.347Z,75.50
2023-03-13T01:11:15.727Z,75.92
2023-03-13T01:13:42.805Z,75.80
2023-03-13T01:16:20.445Z,75.28
2023-03-13T01:18:52.223Z,75.31
2023-03-13T01:21:19.929Z,75.10
2023-03-13T01:23:47.182Z,75.57
2023-03-13T01:26:14.506Z,74.79
2023-03-13T01:28:41.487Z,74.94
2023-03-13T01:31:17.568Z,75.18
2023-03-13T01:33:44.925Z,75.30
2023-03-13T01:36:12.016Z,74.58
2023-03-13T01:38:39.886Z,74.68
2023-03-13T01:41:07.737Z,74.83
2023-03-13T01:43:36.465Z,74.28
2023-03-13T01:46:19.912Z,74.31
2023-03-13T01:49:12.589Z,74.44
2023-03-13T01:52:05.020Z,74.76
2023-03-13T01:54:41.249Z,74.58
2023-03-13T01:57:14.962Z,74.65
2023-03-13T01:59:46.024Z,74.35
2023-03-13T02:02:12.550Z,74.39
2023-03-13T02:04:43.700Z,74.58
2023-03-13T02:07:11.350Z,74.10
2023-03-13T02:09:41.010Z,74.53
2023-03-13T02:12:10.165Z,75.01
2023-03-13T02:14:38.295Z,74.67
2023-03-13T02:17:06.248Z,74.36
2023-03-13T02:19:41.903Z,74.57
2023-03-13T02:22:39.458Z,73.22
2023-03-13T02:25:15.144Z,74.61
2023-03-13T02:27:43.420Z,74.25
2023-03-13T02:30:13.092Z,74.58
2023-03-13T02:32:40.372Z,73.97
2023-03-13T02:35:10.013Z,74.05
2023-03-13T02:37:37.046Z,73.82
2023-03-13T02:40:10.036Z,73.57
2023-03-13T02:42:37.001Z,73.55
2023-03-13T02:45:03.683Z,73.50
2023-03-13T02:47:30.284Z,73.55
2023-03-13T02:49:56.873Z,73.45
2023-03-13T02:52:28.425Z,73.92
2023-03-13T02:55:00.186Z,73.88
2023-03-13T02:57:26.851Z,74.01
2023-03-13T02:59:53.378Z,73.56
2023-03-13T03:02:19.974Z,73.95
2023-03-13T03:04:46.657Z,73.60
2023-03-13T03:07:13.298Z,73.46
2023-03-13T03:09:40.040Z,73.26
2023-03-13T03:12:11.570Z,73.65
2023-03-13T03:14:38.696Z,73.57
2023-03-13T03:17:05.708Z,73.45
2023-03-13T03:19:32.358Z,73.65
2023-03-13T03:22:00.176Z,73.94
2023-03-13T03:24:26.926Z,73.07
2023-03-13T03:26:53.523Z,73.75
2023-03-13T03:29:25.402Z,73.29
2023-03-13T03:31:54.330Z,74.08
2023-03-13T03:34:21.716Z,74.14
2023-03-13T03:36:48.687Z,74.75
2023-03-13T03:39:15.239Z,74.73
2023-03-13T03:41:42.385Z,75.21
2023-03-13T03:44:09.912Z,75.03
2023-03-13T03:47:02.390Z,75.27
2023-03-13T03:49:33.577Z,75.34
2023-03-13T03:52:00.206Z,74.50
2023-03-13T03:54:32.182Z,74.15
2023-03-13T03:57:00.006Z,74.15
2023-03-13T03:59:26.656Z,74.13
2023-03-13T04:01:58.077Z,74.55
2023-03-13T04:04:27.164Z,73.74
2023-03-13T04:07:01.011Z,74.48
2023-03-13T04:09:31.576Z,74.36
2023-03-13T04:11:59.196Z,74.38
2023-03-13T04:14:26.063Z,74.44
2023-03-13T04:16:53.264Z,75.06
2023-03-13T04:19:19.850Z,74.85
2023-03-13T04:21:46.427Z,74.88
2023-03-13T04:24:16.742Z,74.81
2023-03-13T04:26:44.562Z,75.19
2023-03-13T04:29:11.493Z,76.08
2023-03-13T04:31:47.376Z,74.67
2023-03-13T04:34:25.313Z,75.11
2023-03-13T04:37:12.121Z,75.07
2023-03-13T04:40:05.280Z,74.54
2023-03-13T04:42:41.708Z,74.73
2023-03-13T04:45:32.369Z,74.65
2023-03-13T04:48:10.389Z,75.00
2023-03-13T04:51:02.780Z,75.15
2023-03-13T04:53:40.189Z,75.15
2023-03-13T04:56:41.830Z,75.98
2023-03-13T04:59:27.506Z,75.53
2023-03-13T05:02:15.414Z,76.09
2023-03-13T05:05:01.931Z,75.80
2023-03-13T05:07:48.567Z,75.81
2023-03-13T05:10:29.887Z,76.72
2023-03-13T05:13:07.443Z,77.42
2023-03-13T05:15:46.735Z,77.83
2023-03-13T05:18:34.635Z,76.38
2023-03-13T05:21:39.912Z,77.67
2023-03-13T05:24:26.193Z,77.81
2023-03-13T05:27:04.394Z,77.53
2023-03-13T05:29:53.721Z,77.39
2023-03-13T05:32:38.951Z,77.38
2023-03-13T05:35:28.734Z,78.30
2023-03-13T05:38:10.461Z,78.05
2023-03-13T05:40:47.786Z,78.05
2023-03-13T05:43:29.297Z,78.88
2023-03-13T05:46:28.449Z,77.72
2023-03-13T05:49:24.228Z,77.96
2023-03-13T05:52:13.231Z,79.05
2023-03-13T05:54:42.692Z,79.00
2023-03-13T05:57:30.797Z,79.38
2023-03-13T05:59:57.349Z,79.39
2023-03-13T06:02:55.214Z,79.98
2023-03-13T06:05:29.353Z,79.93
2023-03-13T06:07:56.153Z,80.77
2023-03-13T06:10:22.755Z,80.19
2023-03-13T06:12:54.245Z,80.40
2023-03-13T06:15:22.216Z,79.39
2023-03-13T06:17:57.205Z,80.51
2023-03-13T06:20:23.790Z,80.41
2023-03-13T06:22:50.397Z,80.27
2023-03-13T06:25:17.111Z,79.90
2023-03-13T06:27:43.657Z,79.88
2023-03-13T06:30:11.001Z,79.53
2023-03-13T06:32:37.972Z,79.17
2023-03-13T06:35:05.929Z,80.49
2023-03-13T06:37:32.651Z,81.24
2023-03-13T06:39:59.521Z,81.63
2023-03-13T06:42:26.138Z,81.04
2023-03-13T06:44:52.695Z,81.02
2023-03-13T06:47:22.186Z,80.82
2023-03-13T06:49:48.796Z,81.41
2023-03-13T06:52:15.352Z,81.31
2023-03-13T06:54:42.440Z,81.71
2023-03-13T06:57:08.982Z,81.58
2023-03-13T06:59:35.614Z,81.38
2023-03-13T07:02:02.151Z,80.95
2023-03-13T07:04:28.772Z,80.92
2023-03-13T07:06:55.396Z,80.10
2023-03-13T07:09:22.029Z,80.58
2023-03-13T07:11:48.861Z,81.79
2023-03-13T07:14:17.558Z,82.56
2023-03-13T07:16:45.507Z,83.27
2023-03-13T07:19:12.306Z,82.81
2023-03-13T07:21:38.885Z,83.40
2023-03-13T07:24:05.715Z,83.63
2023-03-13T07:26:32.608Z,83.49
2023-03-13T07:28:59.435Z,83.71
2023-03-13T07:31:26.663Z,82.87
2023-03-13T07:33:56.687Z,83.84
2023-03-13T07:36:23.406Z,83.69
2023-03-13T07:38:50.040Z,83.98
2023-03-13T07:41:17.126Z,84.95
2023-03-13T07:43:43.715Z,85.11
2023-03-13T07:46:13.275Z,84.31
2023-03-13T07:48:41.759Z,84.57
2023-03-13T07:51:12.358Z,84.87
2023-03-13T07:53:39.229Z,86.12
2023-03-13T07:56:08.810Z,85.48
2023-03-13T07:58:37.065Z,85.84
2023-03-13T08:01:12.349Z,84.79
2023-03-13T08:03:39.606Z,84.13
2023-03-13T08:06:10.833Z,84.04
2023-03-13T08:08:37.748Z,83.67
2023-03-13T08:11:07.684Z,85.02
2023-03-13T08:13:35.696Z,83.71
2023-03-13T08:16:07.891Z,83.44
2023-03-13T08:18:36.081Z,82.58
2023-03-13T08:21:08.507Z,83.11
2023-03-13T08:23:35.585Z,83.84
2023-03-13T08:26:08.173Z,83.80
2023-03-13T08:28:36.076Z,83.50
2023-03-13T08:31:09.712Z,84.11
2023-03-13T08:33:36.544Z,84.37
2023-03-13T08:36:14.663Z,84.43
2023-03-13T08:38:46.344Z,84.41
2023-03-13T08:41:15.164Z,85.00
2023-03-13T08:43:41.914Z,83.64
2023-03-13T08:46:08.624Z,83.20
2023-03-13T08:48:35.319Z,83.53
2023-03-13T08:51:05.839Z,84.62
2023-03-13T08:53:33.653Z,83.84
2023-03-13T08:56:00.920Z,83.67
2023-03-13T08:58:27.948Z,83.61
2023-03-13T09:00:54.787Z,83.79
2023-03-13T09:03:21.580Z,83.20
2023-03-13T09:05:56.120Z,82.36
2023-03-13T09:08:23.474Z,82.51
2023-03-13T09:10:59.023Z,82.71
2023-03-13T09:13:26.485Z,83.04
2023-03-13T09:16:01.105Z,83.35
2023-03-13T09:18:28.264Z,83.75
2023-03-13T09:20:55.167Z,82.89
2023-03-13T09:23:22.539Z,82.97
2023-03-13T09:25:50.065Z,84.49
2023-03-13T09:28:16.718Z,83.77
2023-03-13T09:30:43.445Z,84.82
2023-03-13T09:33:10.653Z,85.07
2023-03-13T09:35:40.791Z,85.92
2023-03-13T09:38:07.593Z,85.23
2023-03-13T09:40:42.165Z,85.74
2023-03-13T09:43:19.921Z,85.67
2023-03-13T09:45:49.291Z,85.28
2023-03-13T09:48:24.103Z,85.80
2023-03-13T09:51:00.112Z,85.21
2023-03-13T09:53:40.715Z,85.21
2023-03-13T09:56:15.207Z,84.90
2023-03-13T09:58:48.491Z,84.61
2023-03-13T10:01:17.291Z,84.47
2023-03-13T10:04:07.008Z,84.42
2023-03-13T10:06:36.450Z,83.85
2023-03-13T10:09:03.099Z,84.50
2023-03-13T10:11:38.910Z,84.31
2023-03-13T10:14:30.946Z,83.95
2023-03-13T10:17:21.731Z,84.48
2023-03-13T10:19:56.133Z,84.51
2023-03-13T10:22:26.629Z,84.65
2023-03-13T10:24:58.519Z,83.87
2023-03-13T10:27:25.180Z,83.94
2023-03-13T10:29:51.851Z,83.57
2023-03-13T10:32:19.161Z,83.58
2023-03-13T10:34:56.063Z,84.15
2023-03-13T10:37:28.624Z,83.61
2023-03-13T10:39:55.740Z,83.29
2023-03-13T10:42:33.422Z,83.52
2023-03-13T10:45:01.641Z,82.70
2023-03-13T10:47:33.710Z,82.83
2023-03-13T10:50:01.063Z,83.71
2023-03-13T10:52:45.749Z,81.18
2023-03-13T10:55:16.326Z,81.04
2023-03-13T10:57:44.798Z,80.43
2023-03-13T11:00:33.335Z,80.62
2023-03-13T11:03:00.029Z,80.53
2023-03-13T11:05:30.697Z,79.23
2023-03-13T11:07:57.537Z,79.60
2023-03-13T11:10:26.169Z,79.54
2023-03-13T11:12:54.880Z,79.30
2023-03-13T11:15:31.236Z,78.72
2023-03-13T11:18:03.952Z,78.31
2023-03-13T11:20:35.906Z,78.55
2023-03-13T11:23:28.048Z,77.98
2023-03-13T11:26:21.006Z,78.65
2023-03-13T11:28:53.708Z,78.13
2023-03-13T11:31:49.342Z,74.75
2023-03-13T11:34:25.787Z,77.09
2023-03-13T11:36:52.380Z,76.95
2023-03-13T11:39:53.868Z,76.14
2023-03-13T11:42:40.743Z,76.47
2023-03-13T11:45:22.425Z,76.81
2023-03-13T11:47:56.918Z,76.23
2023-03-13T11:50:31.489Z,76.21
2023-03-13T11:52:58.129Z,76.32
2023-03-13T11:55:49.310Z,76.04
2023-03-13T11:58:31.953Z,74.82
2023-03-13T12:01:03.153Z,76.45
2023-03-13T12:03:39.198Z,75.82
2023-03-13T12:06:15.793Z,76.29
2023-03-13T12:08:53.524Z,75.78
2023-03-13T12:11:29.013Z,75.24
2023-03-13T12:14:00.596Z,75.23
2023-03-13T12:16:47.682Z,74.95
2023-03-13T12:19:37.432Z,74.15
2023-03-13T12:22:14.034Z,71.76
2023-03-13T12:25:05.891Z,74.00
2023-03-13T12:27:41.377Z,74.36
2023-03-13T12:30:32.968Z,70.24
2023-03-13T12:33:10.633Z,73.74
2023-03-13T12:35:38.076Z,72.33
2023-03-13T12:38:28.426Z,69.20
2023-03-13T12:41:19.602Z,70.25
2023-03-13T12:44:04.280Z,70.38
2023-03-13T12:46:37.020Z,69.48
2023-03-13T12:49:28.256Z,68.06
2023-03-13T12:52:02.468Z,69.57
2023-03-13T12:54:58.097Z,69.61
2023-03-13T12:57:44.579Z,68.88
2023-03-13T13:00:21.858Z,67.18
2023-03-13T13:02:48.728Z,67.50
2023-03-13T13:05:20.544Z,67.21
2023-03-13T13:07:55.479Z,65.54
2023-03-13T13:10:26.280Z,65.89
2023-03-13T13:13:14.597Z,66.49
2023-03-13T13:16:04.320Z,59.18
2023-03-13T13:18:32.222Z,65.29
2023-03-13T13:21:01.862Z,62.57
2023-03-13T13:23:36.852Z,63.77
2023-03-13T13:26:29.654Z,56.96
2023-03-13T13:29:01.574Z,59.14
2023-03-13T13:31:51.040Z,55.97
2023-03-13T13:34:34.487Z,60.59
2023-03-13T13:37:24.859Z,55.99
2023-03-13T13:39:53.724Z,61.72
2023-03-13T13:42:29.952Z,60.19
2023-03-13T13:45:01.596Z,61.28
2023-03-13T13:47:31.766Z,62.07
2023-03-13T13:50:00.586Z,62.03
2023-03-13T13:52:37.377Z,60.49
2023-03-13T13:55:26.595Z,57.60
2023-03-13T13:58:09.912Z,60.57
2023-03-13T14:00:46.622Z,60.78
2023-03-13T14:03:28.287Z,59.66
2023-03-13T14:06:02.665Z,61.29
2023-03-13T14:08:31.340Z,62.22
2023-03-13T14:11:11.465Z,57.46
2023-03-13T14:13:38.207Z,61.73
2023-03-13T14:16:23.766Z,57.70
2023-03-13T14:18:52.091Z,60.70
2023-03-13T14:21:24.931Z,57.71
2023-03-13T14:23:51.602Z,61.28
2023-03-13T14:26:29.200Z,57.72
2023-03-13T14:28:58.745Z,61.03
2023-03-13T14:31:31.217Z,61.23
2023-03-13T14:33:59.708Z,61.28
2023-03-13T14:36:26.819Z,61.86
2023-03-13T14:38:58.209Z,60.13
2023-03-13T14:41:29.453Z,59.11
2023-03-13T14:44:02.899Z,61.15
2023-03-13T14:46:31.218Z,62.09
2023-03-13T14:49:06.537Z,61.34
2023-03-13T14:51:33.286Z,62.31
2023-03-13T14:54:02.605Z,61.81
2023-03-13T14:56:43.291Z,59.65
2023-03-13T14:59:24.297Z,62.63
2023-03-13T15:02:00.686Z,60.97
2023-03-13T15:05:00.261Z,60.12
2023-03-13T15:07:47.659Z,59.35
2023-03-13T15:10:21.752Z,62.50
2023-03-13T15:12:49.400Z,62.42
2023-03-13T15:15:16.056Z,62.88
2023-03-13T15:17:42.682Z,62.64
2023-03-13T15:20:12.803Z,61.34
2023-03-13T15:22:41.601Z,62.06
2023-03-13T15:25:20.109Z,61.32
2023-03-13T15:27:47.511Z,61.91
2023-03-13T15:30:19.166Z,62.01
2023-03-13T15:32:46.971Z,61.85
2023-03-13T15:35:29.629Z,60.35
2023-03-13T15:37:57.696Z,62.41
2023-03-13T15:40:24.854Z,62.38
2023-03-13T15:42:52.257Z,62.03
2023-03-13T15:45:18.799Z,62.23
2023-03-13T15:47:45.774Z,62.26
2023-03-13T15:50:13.501Z,62.39
2023-03-13T15:52:40.538Z,62.19
2023-03-13T15:55:08.321Z,62.26
2023-03-13T15:57:36.829Z,62.43
2023-03-13T16:00:06.670Z,62.55
2023-03-13T16:02:33.432Z,62.31
2023-03-13T16:04:59.968Z,63.02
2023-03-13T16:07:26.619Z,63.34
2023-03-13T16:09:53.208Z,63.26
2023-03-13T16:12:19.780Z,63.73
2023-03-13T16:14:46.333Z,63.58
2023-03-13T16:17:17.402Z,63.76
2023-03-13T16:19:44.144Z,64.24
2023-03-13T16:22:11.095Z,64.98
2023-03-13T16:24:37.668Z,64.32
2023-03-13T16:27:15.406Z,63.10
2023-03-13T16:29:42.387Z,64.65
2023-03-13T16:32:12.877Z,64.05
2023-03-13T16:34:39.431Z,64.44
2023-03-13T16:37:17.088Z,61.77
2023-03-13T16:39:44.480Z,64.64
2023-03-13T16:42:11.659Z,64.47
2023-03-13T16:44:38.448Z,64.63
2023-03-13T16:47:25.217Z,63.63
2023-03-13T16:49:51.922Z,64.51
2023-03-13T16:52:18.943Z,63.94
2023-03-13T16:54:45.861Z,64.27
2023-03-13T16:57:17.976Z,65.05
2023-03-13T16:59:44.624Z,65.29
2023-03-13T17:02:17.012Z,65.29
2023-03-13T17:04:45.048Z,65.21
2023-03-13T17:07:17.869Z,64.91
2023-03-13T17:09:44.496Z,65.57
2023-03-13T17:12:11.149Z,65.71
2023-03-13T17:14:37.769Z,65.40
2023-03-13T17:17:04.664Z,65.42
2023-03-13T17:19:31.349Z,65.33
2023-03-13T17:21:58.113Z,65.50
2023-03-13T17:24:24.756Z,65.60
2023-03-13T17:26:51.359Z,66.00
2023-03-13T17:29:18.891Z,65.92
2023-03-13T17:31:45.546Z,65.63
2023-03-13T17:34:13.152Z,66.01
2023-03-13T17:36:40.011Z,66.19
2023-03-13T17:39:08.982Z,65.98
2023-03-13T17:41:36.354Z,66.22
2023-03-13T17:44:07.261Z,65.72
2023-03-13T17:46:43.683Z,65.35
2023-03-13T17:49:14.964Z,65.37
2023-03-13T17:51:41.958Z,66.87
2023-03-13T17:54:08.970Z,67.31
2023-03-13T17:56:38.875Z,66.72
2023-03-13T17:59:10.574Z,66.36
2023-03-13T18:01:37.173Z,67.05
2023-03-13T18:04:03.840Z,66.99
2023-03-13T18:06:43.043Z,66.25
2023-03-13T18:09:15.702Z,66.56
2023-03-13T18:11:42.710Z,66.94
2023-03-13T18:14:09.762Z,66.96
2023-03-13T18:16:48.473Z,66.30
2023-03-13T18:19:22.488Z,66.56
2023-03-13T18:21:50.908Z,67.18
2023-03-13T18:24:17.934Z,66.80
2023-03-13T18:26:45.469Z,66.68
2023-03-13T18:29:19.339Z,66.08
2023-03-13T18:31:45.998Z,66.70
2023-03-13T18:34:12.654Z,66.87
2023-03-13T18:36:39.806Z,66.37
2023-03-13T18:39:06.655Z,66.40
2023-03-13T18:41:34.343Z,66.20
2023-03-13T18:44:03.930Z,66.43
2023-03-13T18:46:31.978Z,66.44
2023-03-13T18:49:00.348Z,66.36
2023-03-13T18:51:27.825Z,66.09
2023-03-13T18:53:55.111Z,66.01
2023-03-13T18:56:29.136Z,64.48
2023-03-13T18:58:55.830Z,66.81
2023-03-13T19:01:25.369Z,66.26
2023-03-13T19:03:52.430Z,66.45
2023-03-13T19:06:25.127Z,66.19
2023-03-13T19:08:54.204Z,66.28
2023-03-13T19:11:24.023Z,66.40
2023-03-13T19:13:50.742Z,66.45
2023-03-13T19:16:35.153Z,63.71
2023-03-13T19:19:02.092Z,67.08
2023-03-13T19:21:30.069Z,66.92
2023-03-13T19:23:57.830Z,66.43
2023-03-13T19:26:31.325Z,66.02
2023-03-13T19:28:58.580Z,66.85
2023-03-13T19:31:25.572Z,67.18
2023-03-13T19:33:55.463Z,67.20
2023-03-13T19:36:23.634Z,67.28
2023-03-13T19:38:50.723Z,67.50
2023-03-13T19:41:17.353Z,67.55
2023-03-13T19:43:44.038Z,67.44
2023-03-13T19:46:16.658Z,66.97
2023-03-13T19:48:43.264Z,67.24
2023-03-13T19:51:09.812Z,67.09
2023-03-13T19:53:36.382Z,67.21
2023-03-13T19:56:05.550Z,67.39
2023-03-13T19:58:32.094Z,67.61
2023-03-13T20:01:00.720Z,67.28
2023-03-13T20:03:34.681Z,67.32
2023-03-13T20:06:01.306Z,67.22
2023-03-13T20:08:27.942Z,67.48
2023-03-13T20:10:54.488Z,67.09
2023-03-13T20:13:21.110Z,67.63
2023-03-13T20:15:47.702Z,67.43
2023-03-13T20:18:14.304Z,67.93
2023-03-13T20:20:40.829Z,67.35
2023-03-13T20:23:07.343Z,67.46
2023-03-13T20:25:33.953Z,67.31
2023-03-13T20:28:00.468Z,67.52
2023-03-13T20:30:27.020Z,67.17
2023-03-13T20:32:59.680Z,66.93
2023-03-13T20:35:27.643Z,66.84
2023-03-13T20:37:54.652Z,66.37
2023-03-13T20:40:21.278Z,66.43
2023-03-13T20:42:47.836Z,66.75
2023-03-13T20:45:14.449Z,66.92
2023-03-13T20:47:41.826Z,66.75
2023-03-13T20:50:09.206Z,66.65
2023-03-13T20:52:35.828Z,66.49
2023-03-13T20:55:02.392Z,66.27
2023-03-13T20:57:28.940Z,66.23
2023-03-13T20:59:55.794Z,66.02
2023-03-13T21:02:22.429Z,66.35
2023-03-13T21:04:49.096Z,66.43
2023-03-13T21:07:15.682Z,66.35
2023-03-13T21:09:42.310Z,65.62
2023-03-13T21:12:09.646Z,66.09
2023-03-13T21:14:37.222Z,65.66
2023-03-13T21:17:04.249Z,65.89
2023-03-13T21:19:30.913Z,66.09
2023-03-13T21:21:57.516Z,65.68
2023-03-13T21:24:24.051Z,65.48
2023-03-13T21:26:50.709Z,65.09
2023-03-13T21:29:17.281Z,64.47
2023-03-13T21:31:43.950Z,64.28
2023-03-13T21:34:10.750Z,64.13
2023-03-13T21:36:37.412Z,64.55
2023-03-13T21:39:05.470Z,64.07
2023-03-13T21:41:35.229Z,63.80
2023-03-13T21:44:02.453Z,63.49
2023-03-13T21:46:33.308Z,63.67
2023-03-13T21:49:00.280Z,64.15
2023-03-13T21:51:27.710Z,64.11
2023-03-13T21:53:54.286Z,63.47
2023-03-13T21:56:21.250Z,63.37
2023-03-13T21:58:48.007Z,63.18
2023-03-13T22:01:14.982Z,62.80
2023-03-13T22:03:41.772Z,62.96
2023-03-13T22:06:13.651Z,62.48
2023-03-13T22:08:41.616Z,62.76
2023-03-13T22:11:08.477Z,62.68
2023-03-13T22:13:35.243Z,63.02
2023-03-13T22:16:01.774Z,62.93
2023-03-13T22:18:28.317Z,62.72
2023-03-13T22:21:00.335Z,63.14
2023-03-13T22:23:26.888Z,62.48
2023-03-13T22:25:57.727Z,61.95
2023-03-13T22:28:25.078Z,62.39
2023-03-13T22:30:51.601Z,62.38
2023-03-13T22:33:18.804Z,62.24
2023-03-13T22:35:50.316Z,62.10
2023-03-13T22:38:16.889Z,62.46
2023-03-13T22:40:43.457Z,62.63
2023-03-13T22:43:09.994Z,62.31
2023-03-13T22:45:36.636Z,62.08
2023-03-13T22:48:06.248Z,61.96
2023-03-13T22:50:34.412Z,61.97
2023-03-13T22:53:01.211Z,62.12
2023-03-13T22:55:28.120Z,62.56
2023-03-13T22:57:55.149Z,62.35
2023-03-13T23:00:21.792Z,62.53
2023-03-13T23:02:48.466Z,62.68
2023-03-13T23:05:15.421Z,62.28
2023-03-13T23:07:42.366Z,62.77
2023-03-13T23:10:10.147Z,62.73
2023-03-13T23:12:36.686Z,62.52
2023-03-13T23:15:04.130Z,62.58
2023-03-13T23:17:31.741Z,62.24
2023-03-13T23:20:01.031Z,62.71
2023-03-13T23:22:32.844Z,63.46
2023-03-13T23:24:59.484Z,63.36
2023-03-13T23:27:27.124Z,63.01
2023-03-13T23:29:54.195Z,62.69
2023-03-13T23:32:20.728Z,62.34
2023-03-13T23:34:47.274Z,62.48
2023-03-13T23:37:13.807Z,63.10
2023-03-13T23:39:40.331Z,62.65
2023-03-13T23:42:07.300Z,62.67
2023-03-13T23:44:33.860Z,62.54
2023-03-13T23:47:00.396Z,62.64
2023-03-13T23:49:26.933Z,62.52
2023-03-13T23:51:53.473Z,62.96
2023-03-13T23:54:20.210Z,62.78
2023-03-13T23:56:46.741Z,63.18
2023-03-13T23:59:13.262Z,63.00
